sensor_id;sensor_type;location;lat;lon;timestamp;P1;durP1;ratioP1;P2;durP2;ratioP2
1701;SDS011;848;48.354;10.064;2023-07-13T00:01:57;22.60;;;7.95;;
1701;SDS011;848;48.354;10.064;2023-07-13T00:04:24;17.80;;;8.40;;
1701;SDS011;848;48.354;10.064;2023-07-13T00:06:52;16.20;;;8.00;;
1701;SDS011;848;48.354;10.064;2023-07-13T00:09:20;22.00;;;9.00;;
1701;SDS011;848;48.354;10.064;2023-07-13T00:11:49;19.27;;;9.80;;
1701;SDS011;848;48.354;10.064;2023-07-13T00:14:18;18.35;;;8.93;;
1701;SDS011;848;48.354;10.064;2023-07-13T00:16:45;22.10;;;8.40;;
1701;SDS011;848;48.354;10.064;2023-07-13T00:19:12;28.73;;;8.88;;
1701;SDS011;848;48.354;10.064;2023-07-13T00:21:39;22.98;;;9.05;;
1701;SDS011;848;48.354;10.064;2023-07-13T00:24:07;20.02;;;8.63;;
1701;SDS011;848;48.354;10.064;2023-07-13T00:26:39;22.90;;;7.75;;
1701;SDS011;848;48.354;10.064;2023-07-13T00:29:10;18.25;;;7.63;;
1701;SDS011;848;48.354;10.064;2023-07-13T00:31:37;16.35;;;7.95;;
1701;SDS011;848;48.354;10.064;2023-07-13T00:34:04;16.20;;;7.90;;
1701;SDS011;848;48.354;10.064;2023-07-13T00:36:31;22.67;;;9.38;;
1701;SDS011;848;48.354;10.064;2023-07-13T00:38:58;17.30;;;9.38;;
1701;SDS011;848;48.354;10.064;2023-07-13T00:41:25;20.38;;;7.72;;
1701;SDS011;848;48.354;10.064;2023-07-13T00:43:53;19.77;;;8.43;;
1701;SDS011;848;48.354;10.064;2023-07-13T00:46:24;20.88;;;6.75;;
1701;SDS011;848;48.354;10.064;2023-07-13T00:48:53;18.70;;;6.95;;
1701;SDS011;848;48.354;10.064;2023-07-13T00:51:25;16.05;;;6.10;;
1701;SDS011;848;48.354;10.064;2023-07-13T00:53:58;15.80;;;6.40;;
1701;SDS011;848;48.354;10.064;2023-07-13T00:56:29;14.50;;;5.50;;
1701;SDS011;848;48.354;10.064;2023-07-13T00:58:59;12.80;;;5.43;;
1701;SDS011;848;48.354;10.064;2023-07-13T01:01:28;13.73;;;5.88;;
1701;SDS011;848;48.354;10.064;2023-07-13T01:03:55;16.08;;;6.22;;
1701;SDS011;848;48.354;10.064;2023-07-13T01:06:22;16.42;;;6.80;;
1701;SDS011;848;48.354;10.064;2023-07-13T01:08:49;14.00;;;6.05;;
1701;SDS011;848;48.354;10.064;2023-07-13T01:11:18;16.08;;;6.22;;
1701;SDS011;848;48.354;10.064;2023-07-13T01:13:46;12.98;;;5.68;;
1701;SDS011;848;48.354;10.064;2023-07-13T01:16:15;14.40;;;5.90;;
1701;SDS011;848;48.354;10.064;2023-07-13T01:18:48;14.98;;;5.25;;
1701;SDS011;848;48.354;10.064;2023-07-13T01:21:16;15.93;;;5.35;;
1701;SDS011;848;48.354;10.064;2023-07-13T01:23:44;13.00;;;5.20;;
1701;SDS011;848;48.354;10.064;2023-07-13T01:26:10;15.27;;;5.00;;
1701;SDS011;848;48.354;10.064;2023-07-13T01:28:37;19.00;;;5.68;;
1701;SDS011;848;48.354;10.064;2023-07-13T01:31:04;19.30;;;5.03;;
1701;SDS011;848;48.354;10.064;2023-07-13T01:33:31;16.92;;;5.03;;
1701;SDS011;848;48.354;10.064;2023-07-13T01:35:59;13.88;;;5.43;;
1701;SDS011;848;48.354;10.064;2023-07-13T01:38:28;13.85;;;4.85;;
1701;SDS011;848;48.354;10.064;2023-07-13T01:40:55;15.40;;;5.13;;
1701;SDS011;848;48.354;10.064;2023-07-13T01:43:22;14.27;;;5.07;;
1701;SDS011;848;48.354;10.064;2023-07-13T01:45:49;17.20;;;4.20;;
1701;SDS011;848;48.354;10.064;2023-07-13T01:48:16;18.70;;;4.60;;
1701;SDS011;848;48.354;10.064;2023-07-13T01:50:43;17.33;;;4.15;;
1701;SDS011;848;48.354;10.064;2023-07-13T01:53:10;12.65;;;4.03;;
1701;SDS011;848;48.354;10.064;2023-07-13T01:55:38;13.93;;;4.30;;
1701;SDS011;848;48.354;10.064;2023-07-13T01:58:05;14.60;;;4.18;;
1701;SDS011;848;48.354;10.064;2023-07-13T02:00:32;15.73;;;4.53;;
1701;SDS011;848;48.354;10.064;2023-07-13T02:02:59;11.05;;;3.58;;
1701;SDS011;848;48.354;10.064;2023-07-13T02:05:26;12.80;;;3.95;;
1701;SDS011;848;48.354;10.064;2023-07-13T02:07:53;12.20;;;3.63;;
1701;SDS011;848;48.354;10.064;2023-07-13T02:10:20;12.00;;;3.05;;
1701;SDS011;848;48.354;10.064;2023-07-13T02:12:49;16.52;;;4.07;;
1701;SDS011;848;48.354;10.064;2023-07-13T02:15:16;10.68;;;3.20;;
1701;SDS011;848;48.354;10.064;2023-07-13T02:17:43;11.85;;;3.25;;
1701;SDS011;848;48.354;10.064;2023-07-13T02:20:10;17.35;;;3.85;;
1701;SDS011;848;48.354;10.064;2023-07-13T02:22:37;12.00;;;3.67;;
1701;SDS011;848;48.354;10.064;2023-07-13T02:25:04;10.63;;;3.15;;
1701;SDS011;848;48.354;10.064;2023-07-13T02:27:32;10.52;;;2.92;;
1701;SDS011;848;48.354;10.064;2023-07-13T02:30:00;11.55;;;3.35;;
1701;SDS011;848;48.354;10.064;2023-07-13T02:32:28;13.85;;;2.80;;
1701;SDS011;848;48.354;10.064;2023-07-13T02:34:54;11.40;;;3.25;;
1701;SDS011;848;48.354;10.064;2023-07-13T02:37:21;14.30;;;3.75;;
1701;SDS011;848;48.354;10.064;2023-07-13T02:39:48;12.65;;;3.70;;
1701;SDS011;848;48.354;10.064;2023-07-13T02:42:15;11.90;;;2.90;;
1701;SDS011;848;48.354;10.064;2023-07-13T02:44:42;13.90;;;3.50;;
1701;SDS011;848;48.354;10.064;2023-07-13T02:47:10;10.23;;;2.72;;
1701;SDS011;848;48.354;10.064;2023-07-13T02:49:38;12.63;;;3.35;;
1701;SDS011;848;48.354;10.064;2023-07-13T02:52:05;11.68;;;3.40;;
1701;SDS011;848;48.354;10.064;2023-07-13T02:54:32;11.43;;;3.33;;
1701;SDS011;848;48.354;10.064;2023-07-13T02:56:59;12.00;;;4.00;;
1701;SDS011;848;48.354;10.064;2023-07-13T02:59:26;10.77;;;3.35;;
1701;SDS011;848;48.354;10.064;2023-07-13T03:01:52;11.85;;;3.45;;
1701;SDS011;848;48.354;10.064;2023-07-13T03:04:21;19.50;;;3.88;;
1701;SDS011;848;48.354;10.064;2023-07-13T03:06:48;11.95;;;3.00;;
1701;SDS011;848;48.354;10.064;2023-07-13T03:09:15;12.43;;;3.38;;
1701;SDS011;848;48.354;10.064;2023-07-13T03:11:42;19.58;;;3.75;;
1701;SDS011;848;48.354;10.064;2023-07-13T03:14:08;14.65;;;3.58;;
1701;SDS011;848;48.354;10.064;2023-07-13T03:16:35;15.55;;;3.60;;
1701;SDS011;848;48.354;10.064;2023-07-13T03:19:02;15.35;;;3.88;;
1701;SDS011;848;48.354;10.064;2023-07-13T03:21:30;13.15;;;3.38;;
1701;SDS011;848;48.354;10.064;2023-07-13T03:23:57;11.45;;;3.28;;
1701;SDS011;848;48.354;10.064;2023-07-13T03:26:24;13.50;;;3.00;;
1701;SDS011;848;48.354;10.064;2023-07-13T03:28:51;14.73;;;4.47;;
1701;SDS011;848;48.354;10.064;2023-07-13T03:31:19;13.55;;;3.90;;
1701;SDS011;848;48.354;10.064;2023-07-13T03:33:47;14.70;;;3.30;;
1701;SDS011;848;48.354;10.064;2023-07-13T03:36:15;11.25;;;3.33;;
1701;SDS011;848;48.354;10.064;2023-07-13T03:38:46;15.68;;;3.10;;
1701;SDS011;848;48.354;10.064;2023-07-13T03:41:14;12.07;;;3.03;;
1701;SDS011;848;48.354;10.064;2023-07-13T03:43:41;11.63;;;3.45;;
1701;SDS011;848;48.354;10.064;2023-07-13T03:46:08;12.02;;;2.95;;
1701;SDS011;848;48.354;10.064;2023-07-13T03:48:35;13.05;;;4.30;;
1701;SDS011;848;48.354;10.064;2023-07-13T03:51:02;12.15;;;2.97;;
1701;SDS011;848;48.354;10.064;2023-07-13T03:53:29;10.73;;;3.08;;
1701;SDS011;848;48.354;10.064;2023-07-13T03:55:57;12.07;;;2.95;;
1701;SDS011;848;48.354;10.064;2023-07-13T03:58:29;13.25;;;3.00;;
1701;SDS011;848;48.354;10.064;2023-07-13T04:00:57;13.77;;;3.17;;
1701;SDS011;848;48.354;10.064;2023-07-13T04:03:25;17.08;;;3.47;;
1701;SDS011;848;48.354;10.064;2023-07-13T04:05:53;14.68;;;3.45;;
1701;SDS011;848;48.354;10.064;2023-07-13T04:08:25;13.02;;;3.10;;
1701;SDS011;848;48.354;10.064;2023-07-13T04:10:52;11.85;;;3.15;;
1701;SDS011;848;48.354;10.064;2023-07-13T04:13:21;13.73;;;3.35;;
1701;SDS011;848;48.354;10.064;2023-07-13T04:15:48;13.80;;;3.60;;
1701;SDS011;848;48.354;10.064;2023-07-13T04:18:15;13.32;;;3.10;;
1701;SDS011;848;48.354;10.064;2023-07-13T04:20:42;10.57;;;2.83;;
1701;SDS011;848;48.354;10.064;2023-07-13T04:23:09;12.18;;;3.42;;
1701;SDS011;848;48.354;10.064;2023-07-13T04:25:36;13.45;;;3.33;;
1701;SDS011;848;48.354;10.064;2023-07-13T04:28:03;14.25;;;2.88;;
1701;SDS011;848;48.354;10.064;2023-07-13T04:30:31;12.00;;;3.30;;
1701;SDS011;848;48.354;10.064;2023-07-13T04:32:59;10.68;;;3.17;;
1701;SDS011;848;48.354;10.064;2023-07-13T04:35:25;11.93;;;2.72;;
1701;SDS011;848;48.354;10.064;2023-07-13T04:37:52;15.27;;;3.78;;
1701;SDS011;848;48.354;10.064;2023-07-13T04:40:19;15.80;;;3.85;;
1701;SDS011;848;48.354;10.064;2023-07-13T04:42:46;12.45;;;3.72;;
1701;SDS011;848;48.354;10.064;2023-07-13T04:45:14;11.02;;;3.28;;
1701;SDS011;848;48.354;10.064;2023-07-13T04:47:43;14.57;;;3.30;;
1701;SDS011;848;48.354;10.064;2023-07-13T04:50:12;13.13;;;3.38;;
1701;SDS011;848;48.354;10.064;2023-07-13T04:52:40;14.50;;;3.67;;
1701;SDS011;848;48.354;10.064;2023-07-13T04:55:07;11.93;;;3.15;;
1701;SDS011;848;48.354;10.064;2023-07-13T04:57:34;11.95;;;3.30;;
1701;SDS011;848;48.354;10.064;2023-07-13T05:00:01;11.20;;;3.10;;
1701;SDS011;848;48.354;10.064;2023-07-13T05:02:30;14.05;;;3.30;;
1701;SDS011;848;48.354;10.064;2023-07-13T05:04:59;11.80;;;3.13;;
1701;SDS011;848;48.354;10.064;2023-07-13T05:07:27;13.20;;;3.00;;
1701;SDS011;848;48.354;10.064;2023-07-13T05:09:53;13.15;;;3.47;;
1701;SDS011;848;48.354;10.064;2023-07-13T05:12:21;11.68;;;3.08;;
1701;SDS011;848;48.354;10.064;2023-07-13T05:14:48;11.60;;;2.75;;
1701;SDS011;848;48.354;10.064;2023-07-13T05:17:14;11.23;;;2.72;;
1701;SDS011;848;48.354;10.064;2023-07-13T05:19:41;15.07;;;3.90;;
1701;SDS011;848;48.354;10.064;2023-07-13T05:22:10;10.55;;;3.47;;
1701;SDS011;848;48.354;10.064;2023-07-13T05:24:37;13.90;;;3.30;;
1701;SDS011;848;48.354;10.064;2023-07-13T05:27:04;11.77;;;3.53;;
1701;SDS011;848;48.354;10.064;2023-07-13T05:29:32;13.30;;;3.10;;
1701;SDS011;848;48.354;10.064;2023-07-13T05:31:58;14.18;;;3.83;;
1701;SDS011;848;48.354;10.064;2023-07-13T05:34:25;16.33;;;4.13;;
1701;SDS011;848;48.354;10.064;2023-07-13T05:36:52;12.50;;;3.60;;
1701;SDS011;848;48.354;10.064;2023-07-13T05:39:21;15.10;;;3.30;;
1701;SDS011;848;48.354;10.064;2023-07-13T05:41:47;12.02;;;3.65;;
1701;SDS011;848;48.354;10.064;2023-07-13T05:44:15;11.45;;;3.13;;
1701;SDS011;848;48.354;10.064;2023-07-13T05:46:41;10.90;;;3.03;;
1701;SDS011;848;48.354;10.064;2023-07-13T05:49:08;12.05;;;2.95;;
1701;SDS011;848;48.354;10.064;2023-07-13T05:51:36;16.02;;;3.50;;
1701;SDS011;848;48.354;10.064;2023-07-13T05:54:03;12.57;;;3.90;;
1701;SDS011;848;48.354;10.064;2023-07-13T05:56:31;10.32;;;3.38;;
1701;SDS011;848;48.354;10.064;2023-07-13T05:58:58;12.10;;;3.35;;
1701;SDS011;848;48.354;10.064;2023-07-13T06:01:25;17.73;;;4.03;;
1701;SDS011;848;48.354;10.064;2023-07-13T06:03:52;12.50;;;3.35;;
1701;SDS011;848;48.354;10.064;2023-07-13T06:06:18;12.48;;;3.35;;
1701;SDS011;848;48.354;10.064;2023-07-13T06:08:45;14.80;;;3.00;;
1701;SDS011;848;48.354;10.064;2023-07-13T06:11:14;13.27;;;3.08;;
1701;SDS011;848;48.354;10.064;2023-07-13T06:13:44;13.68;;;3.15;;
1701;SDS011;848;48.354;10.064;2023-07-13T06:16:12;12.30;;;3.25;;
1701;SDS011;848;48.354;10.064;2023-07-13T06:18:40;13.10;;;2.95;;
1701;SDS011;848;48.354;10.064;2023-07-13T06:21:08;12.88;;;3.70;;
1701;SDS011;848;48.354;10.064;2023-07-13T06:23:36;11.77;;;2.80;;
1701;SDS011;848;48.354;10.064;2023-07-13T06:26:03;14.52;;;3.65;;
1701;SDS011;848;48.354;10.064;2023-07-13T06:28:30;10.93;;;2.63;;
1701;SDS011;848;48.354;10.064;2023-07-13T06:30:59;15.35;;;3.30;;
1701;SDS011;848;48.354;10.064;2023-07-13T06:33:26;14.15;;;3.00;;
1701;SDS011;848;48.354;10.064;2023-07-13T06:35:53;9.23;;;2.60;;
1701;SDS011;848;48.354;10.064;2023-07-13T06:38:20;13.80;;;3.00;;
1701;SDS011;848;48.354;10.064;2023-07-13T06:40:47;12.60;;;3.10;;
1701;SDS011;848;48.354;10.064;2023-07-13T06:43:14;14.68;;;3.00;;
1701;SDS011;848;48.354;10.064;2023-07-13T06:45:43;12.35;;;2.70;;
1701;SDS011;848;48.354;10.064;2023-07-13T06:48:13;12.93;;;2.90;;
1701;SDS011;848;48.354;10.064;2023-07-13T06:50:41;11.85;;;2.55;;
1701;SDS011;848;48.354;10.064;2023-07-13T06:53:08;14.10;;;2.38;;
1701;SDS011;848;48.354;10.064;2023-07-13T06:55:35;12.35;;;2.30;;
1701;SDS011;848;48.354;10.064;2023-07-13T06:58:02;9.82;;;2.50;;
1701;SDS011;848;48.354;10.064;2023-07-13T07:00:29;11.27;;;2.40;;
1701;SDS011;848;48.354;10.064;2023-07-13T07:02:55;12.23;;;2.90;;
1701;SDS011;848;48.354;10.064;2023-07-13T07:05:24;13.32;;;3.15;;
1701;SDS011;848;48.354;10.064;2023-07-13T07:07:51;14.60;;;3.35;;
1701;SDS011;848;48.354;10.064;2023-07-13T07:10:20;10.68;;;2.60;;
1701;SDS011;848;48.354;10.064;2023-07-13T07:12:47;10.32;;;2.80;;
1701;SDS011;848;48.354;10.064;2023-07-13T07:15:14;9.38;;;2.78;;
1701;SDS011;848;48.354;10.064;2023-07-13T07:17:42;9.85;;;2.55;;
1701;SDS011;848;48.354;10.064;2023-07-13T07:20:09;9.73;;;2.30;;
1701;SDS011;848;48.354;10.064;2023-07-13T07:22:38;10.70;;;2.90;;
1701;SDS011;848;48.354;10.064;2023-07-13T07:25:05;11.18;;;2.83;;
1701;SDS011;848;48.354;10.064;2023-07-13T07:27:32;9.45;;;2.25;;
1701;SDS011;848;48.354;10.064;2023-07-13T07:29:59;17.50;;;2.72;;
1701;SDS011;848;48.354;10.064;2023-07-13T07:32:28;13.07;;;3.17;;
1701;SDS011;848;48.354;10.064;2023-07-13T07:34:56;14.00;;;2.80;;
1701;SDS011;848;48.354;10.064;2023-07-13T07:37:23;12.50;;;2.60;;
1701;SDS011;848;48.354;10.064;2023-07-13T07:39:51;11.05;;;2.90;;
1701;SDS011;848;48.354;10.064;2023-07-13T07:42:18;11.18;;;2.67;;
1701;SDS011;848;48.354;10.064;2023-07-13T07:44:45;10.20;;;3.08;;
1701;SDS011;848;48.354;10.064;2023-07-13T07:47:12;9.20;;;2.33;;
1701;SDS011;848;48.354;10.064;2023-07-13T07:49:40;11.00;;;2.33;;
1701;SDS011;848;48.354;10.064;2023-07-13T07:52:07;13.20;;;2.33;;
1701;SDS011;848;48.354;10.064;2023-07-13T07:54:34;12.23;;;3.20;;
1701;SDS011;848;48.354;10.064;2023-07-13T07:57:02;10.15;;;2.40;;
1701;SDS011;848;48.354;10.064;2023-07-13T07:59:29;11.32;;;2.30;;
1701;SDS011;848;48.354;10.064;2023-07-13T08:01:56;26.92;;;2.63;;
1701;SDS011;848;48.354;10.064;2023-07-13T08:04:23;9.83;;;2.10;;
1701;SDS011;848;48.354;10.064;2023-07-13T08:06:50;12.63;;;2.50;;
1701;SDS011;848;48.354;10.064;2023-07-13T08:09:17;11.20;;;2.37;;
1701;SDS011;848;48.354;10.064;2023-07-13T08:11:44;12.90;;;2.60;;
1701;SDS011;848;48.354;10.064;2023-07-13T08:14:12;12.60;;;2.53;;
1701;SDS011;848;48.354;10.064;2023-07-13T08:16:39;8.98;;;2.47;;
1701;SDS011;848;48.354;10.064;2023-07-13T08:19:06;12.00;;;1.80;;
1701;SDS011;848;48.354;10.064;2023-07-13T08:21:33;14.10;;;2.20;;
1701;SDS011;848;48.354;10.064;2023-07-13T08:24:00;10.07;;;2.40;;
1701;SDS011;848;48.354;10.064;2023-07-13T08:26:27;12.17;;;1.93;;
1701;SDS011;848;48.354;10.064;2023-07-13T08:28:54;9.00;;;2.00;;
1701;SDS011;848;48.354;10.064;2023-07-13T08:31:22;10.90;;;2.27;;
1701;SDS011;848;48.354;10.064;2023-07-13T08:33:49;9.70;;;2.03;;
1701;SDS011;848;48.354;10.064;2023-07-13T08:36:16;9.90;;;2.10;;
1701;SDS011;848;48.354;10.064;2023-07-13T08:38:43;13.20;;;2.67;;
1701;SDS011;848;48.354;10.064;2023-07-13T08:41:11;9.93;;;2.33;;
1701;SDS011;848;48.354;10.064;2023-07-13T08:43:40;11.50;;;2.23;;
1701;SDS011;848;48.354;10.064;2023-07-13T08:46:09;8.60;;;2.10;;
1701;SDS011;848;48.354;10.064;2023-07-13T08:48:42;11.50;;;2.70;;
1701;SDS011;848;48.354;10.064;2023-07-13T08:51:18;9.75;;;2.15;;
1701;SDS011;848;48.354;10.064;2023-07-13T08:54:01;11.70;;;2.67;;
1701;SDS011;848;48.354;10.064;2023-07-13T08:56:30;13.40;;;2.57;;
1701;SDS011;848;48.354;10.064;2023-07-13T08:59:00;10.88;;;2.05;;
1701;SDS011;848;48.354;10.064;2023-07-13T09:01:38;9.40;;;2.30;;
1701;SDS011;848;48.354;10.064;2023-07-13T09:04:25;11.73;;;2.97;;
1701;SDS011;848;48.354;10.064;2023-07-13T09:06:58;14.70;;;2.47;;
1701;SDS011;848;48.354;10.064;2023-07-13T09:09:43;9.40;;;2.10;;
1701;SDS011;848;48.354;10.064;2023-07-13T09:12:22;12.00;;;2.17;;
1701;SDS011;848;48.354;10.064;2023-07-13T09:14:56;10.90;;;2.00;;
1701;SDS011;848;48.354;10.064;2023-07-13T09:17:26;11.27;;;2.20;;
1701;SDS011;848;48.354;10.064;2023-07-13T09:20:02;9.03;;;2.10;;
1701;SDS011;848;48.354;10.064;2023-07-13T09:22:35;10.10;;;2.47;;
1701;SDS011;848;48.354;10.064;2023-07-13T09:25:05;11.53;;;2.30;;
1701;SDS011;848;48.354;10.064;2023-07-13T09:27:40;11.40;;;2.50;;
1701;SDS011;848;48.354;10.064;2023-07-13T09:30:17;10.57;;;2.43;;
1701;SDS011;848;48.354;10.064;2023-07-13T09:32:52;10.00;;;2.20;;
1701;SDS011;848;48.354;10.064;2023-07-13T09:35:21;9.70;;;2.13;;
1701;SDS011;848;48.354;10.064;2023-07-13T09:37:56;9.90;;;1.83;;
1701;SDS011;848;48.354;10.064;2023-07-13T09:40:25;9.00;;;2.30;;
1701;SDS011;848;48.354;10.064;2023-07-13T09:42:59;10.87;;;2.10;;
1701;SDS011;848;48.354;10.064;2023-07-13T09:45:29;10.73;;;2.30;;
1701;SDS011;848;48.354;10.064;2023-07-13T09:48:03;11.97;;;2.10;;
1701;SDS011;848;48.354;10.064;2023-07-13T09:50:33;9.73;;;2.03;;
1701;SDS011;848;48.354;10.064;2023-07-13T09:53:00;10.70;;;2.53;;
1701;SDS011;848;48.354;10.064;2023-07-13T09:55:30;9.00;;;2.03;;
1701;SDS011;848;48.354;10.064;2023-07-13T09:58:04;8.90;;;1.70;;
1701;SDS011;848;48.354;10.064;2023-07-13T10:00:35;9.60;;;2.20;;
1701;SDS011;848;48.354;10.064;2023-07-13T10:03:04;12.27;;;2.60;;
1701;SDS011;848;48.354;10.064;2023-07-13T10:05:41;11.03;;;1.80;;
1701;SDS011;848;48.354;10.064;2023-07-13T10:08:15;8.83;;;2.17;;
1701;SDS011;848;48.354;10.064;2023-07-13T10:10:52;13.57;;;1.90;;
1701;SDS011;848;48.354;10.064;2023-07-13T10:13:30;8.23;;;1.97;;
1701;SDS011;848;48.354;10.064;2023-07-13T10:16:02;9.10;;;1.90;;
1701;SDS011;848;48.354;10.064;2023-07-13T10:18:31;15.37;;;1.67;;
1701;SDS011;848;48.354;10.064;2023-07-13T10:21:12;12.27;;;2.10;;
1701;SDS011;848;48.354;10.064;2023-07-13T10:23:41;9.27;;;2.07;;
1701;SDS011;848;48.354;10.064;2023-07-13T10:26:11;12.80;;;2.30;;
1701;SDS011;848;48.354;10.064;2023-07-13T10:28:42;11.60;;;2.30;;
1701;SDS011;848;48.354;10.064;2023-07-13T10:31:13;9.50;;;1.97;;
1701;SDS011;848;48.354;10.064;2023-07-13T10:33:43;11.50;;;2.43;;
1701;SDS011;848;48.354;10.064;2023-07-13T10:36:17;8.90;;;1.70;;
1701;SDS011;848;48.354;10.064;2023-07-13T10:38:50;9.17;;;2.00;;
1701;SDS011;848;48.354;10.064;2023-07-13T10:41:19;9.50;;;1.83;;
1701;SDS011;848;48.354;10.064;2023-07-13T10:43:49;9.40;;;1.97;;
1701;SDS011;848;48.354;10.064;2023-07-13T10:46:19;10.13;;;2.20;;
1701;SDS011;848;48.354;10.064;2023-07-13T10:48:52;9.40;;;2.10;;
1701;SDS011;848;48.354;10.064;2023-07-13T10:51:23;9.93;;;1.90;;
1701;SDS011;848;48.354;10.064;2023-07-13T10:56:42;10.53;;;2.33;;
1701;SDS011;848;48.354;10.064;2023-07-13T10:59:11;11.93;;;2.50;;
1701;SDS011;848;48.354;10.064;2023-07-13T11:01:46;14.10;;;2.27;;
1701;SDS011;848;48.354;10.064;2023-07-13T11:04:17;8.90;;;2.00;;
1701;SDS011;848;48.354;10.064;2023-07-13T11:06:48;10.03;;;2.37;;
1701;SDS011;848;48.354;10.064;2023-07-13T11:09:19;10.23;;;2.10;;
1701;SDS011;848;48.354;10.064;2023-07-13T11:11:58;9.67;;;2.20;;
1701;SDS011;848;48.354;10.064;2023-07-13T11:14:26;10.27;;;2.20;;
1701;SDS011;848;48.354;10.064;2023-07-13T11:17:05;10.87;;;2.20;;
1701;SDS011;848;48.354;10.064;2023-07-13T11:19:56;11.00;;;2.47;;
1701;SDS011;848;48.354;10.064;2023-07-13T11:22:44;8.50;;;2.10;;
1701;SDS011;848;48.354;10.064;2023-07-13T11:25:29;8.80;;;2.60;;
1701;SDS011;848;48.354;10.064;2023-07-13T11:28:05;10.00;;;2.53;;
1701;SDS011;848;48.354;10.064;2023-07-13T11:30:40;8.67;;;1.80;;
1701;SDS011;848;48.354;10.064;2023-07-13T11:33:14;8.70;;;1.97;;
1701;SDS011;848;48.354;10.064;2023-07-13T11:35:48;9.00;;;2.13;;
1701;SDS011;848;48.354;10.064;2023-07-13T11:38:21;9.43;;;2.20;;
1701;SDS011;848;48.354;10.064;2023-07-13T11:40:51;8.10;;;2.00;;
1701;SDS011;848;48.354;10.064;2023-07-13T11:43:21;11.90;;;2.13;;
1701;SDS011;848;48.354;10.064;2023-07-13T11:45:49;16.07;;;2.60;;
1701;SDS011;848;48.354;10.064;2023-07-13T11:48:28;9.80;;;2.77;;
1701;SDS011;848;48.354;10.064;2023-07-13T11:50:57;9.63;;;2.20;;
1701;SDS011;848;48.354;10.064;2023-07-13T11:53:29;8.93;;;2.07;;
1701;SDS011;848;48.354;10.064;2023-07-13T11:56:11;11.10;;;2.10;;
1701;SDS011;848;48.354;10.064;2023-07-13T11:58:39;10.93;;;2.60;;
1701;SDS011;848;48.354;10.064;2023-07-13T12:01:12;11.70;;;2.50;;
1701;SDS011;848;48.354;10.064;2023-07-13T12:03:44;8.73;;;2.20;;
1701;SDS011;848;48.354;10.064;2023-07-13T12:06:21;10.10;;;1.90;;
1701;SDS011;848;48.354;10.064;2023-07-13T12:08:57;13.07;;;2.20;;
1701;SDS011;848;48.354;10.064;2023-07-13T12:11:24;8.80;;;2.17;;
1701;SDS011;848;48.354;10.064;2023-07-13T12:13:51;10.17;;;2.07;;
1701;SDS011;848;48.354;10.064;2023-07-13T12:16:21;9.23;;;2.03;;
1701;SDS011;848;48.354;10.064;2023-07-13T12:18:55;9.57;;;2.23;;
1701;SDS011;848;48.354;10.064;2023-07-13T12:21:26;11.30;;;2.00;;
1701;SDS011;848;48.354;10.064;2023-07-13T12:23:58;8.70;;;1.90;;
1701;SDS011;848;48.354;10.064;2023-07-13T12:26:28;8.90;;;2.00;;
1701;SDS011;848;48.354;10.064;2023-07-13T12:28:56;9.90;;;2.00;;
1701;SDS011;848;48.354;10.064;2023-07-13T12:31:29;8.80;;;1.60;;
1701;SDS011;848;48.354;10.064;2023-07-13T12:33:59;10.40;;;2.57;;
1701;SDS011;848;48.354;10.064;2023-07-13T12:36:29;11.57;;;2.13;;
1701;SDS011;848;48.354;10.064;2023-07-13T12:39:00;9.80;;;2.33;;
1701;SDS011;848;48.354;10.064;2023-07-13T12:41:36;9.20;;;2.03;;
1701;SDS011;848;48.354;10.064;2023-07-13T12:44:04;9.20;;;2.57;;
1701;SDS011;848;48.354;10.064;2023-07-13T12:46:34;9.73;;;1.77;;
1701;SDS011;848;48.354;10.064;2023-07-13T12:49:01;10.70;;;2.37;;
1701;SDS011;848;48.354;10.064;2023-07-13T12:51:33;8.80;;;2.10;;
1701;SDS011;848;48.354;10.064;2023-07-13T12:54:07;9.70;;;2.20;;
1701;SDS011;848;48.354;10.064;2023-07-13T12:56:41;10.13;;;1.90;;
1701;SDS011;848;48.354;10.064;2023-07-13T12:59:12;10.40;;;2.63;;
1701;SDS011;848;48.354;10.064;2023-07-13T13:01:43;8.73;;;1.97;;
1701;SDS011;848;48.354;10.064;2023-07-13T13:04:10;11.50;;;2.50;;
1701;SDS011;848;48.354;10.064;2023-07-13T13:06:38;14.20;;;2.43;;
1701;SDS011;848;48.354;10.064;2023-07-13T13:09:11;8.53;;;1.70;;
1701;SDS011;848;48.354;10.064;2023-07-13T13:11:39;10.27;;;2.33;;
1701;SDS011;848;48.354;10.064;2023-07-13T13:14:07;9.30;;;1.83;;
1701;SDS011;848;48.354;10.064;2023-07-13T13:16:35;13.73;;;2.63;;
1701;SDS011;848;48.354;10.064;2023-07-13T13:19:10;11.80;;;2.77;;
1701;SDS011;848;48.354;10.064;2023-07-13T13:21:40;10.67;;;2.40;;
1701;SDS011;848;48.354;10.064;2023-07-13T13:24:11;11.33;;;2.00;;
1701;SDS011;848;48.354;10.064;2023-07-13T13:26:39;12.67;;;2.03;;
1701;SDS011;848;48.354;10.064;2023-07-13T13:29:09;15.43;;;1.90;;
1701;SDS011;848;48.354;10.064;2023-07-13T13:31:39;12.80;;;2.33;;
1701;SDS011;848;48.354;10.064;2023-07-13T13:34:08;11.40;;;2.10;;
1701;SDS011;848;48.354;10.064;2023-07-13T13:36:36;10.23;;;2.20;;
1701;SDS011;848;48.354;10.064;2023-07-13T13:39:05;10.03;;;1.93;;
1701;SDS011;848;48.354;10.064;2023-07-13T13:41:42;8.50;;;1.80;;
1701;SDS011;848;48.354;10.064;2023-07-13T13:44:09;10.03;;;2.03;;
1701;SDS011;848;48.354;10.064;2023-07-13T13:46:36;9.47;;;2.10;;
1701;SDS011;848;48.354;10.064;2023-07-13T13:49:03;13.60;;;2.60;;
1701;SDS011;848;48.354;10.064;2023-07-13T13:51:31;9.60;;;2.47;;
1701;SDS011;848;48.354;10.064;2023-07-13T13:53:58;13.30;;;2.23;;
1701;SDS011;848;48.354;10.064;2023-07-13T13:56:28;8.50;;;2.03;;
1701;SDS011;848;48.354;10.064;2023-07-13T13:58:55;13.90;;;2.00;;
1701;SDS011;848;48.354;10.064;2023-07-13T14:01:22;12.13;;;6.40;;
1701;SDS011;848;48.354;10.064;2023-07-13T14:03:49;9.70;;;2.67;;
1701;SDS011;848;48.354;10.064;2023-07-13T14:06:17;9.70;;;1.80;;
1701;SDS011;848;48.354;10.064;2023-07-13T14:08:44;10.87;;;2.50;;
1701;SDS011;848;48.354;10.064;2023-07-13T14:11:12;9.37;;;2.23;;
1701;SDS011;848;48.354;10.064;2023-07-13T14:13:43;8.80;;;2.13;;
1701;SDS011;848;48.354;10.064;2023-07-13T14:16:12;11.57;;;2.00;;
1701;SDS011;848;48.354;10.064;2023-07-13T14:18:43;9.37;;;2.30;;
1701;SDS011;848;48.354;10.064;2023-07-13T14:21:11;9.77;;;2.60;;
1701;SDS011;848;48.354;10.064;2023-07-13T14:23:39;10.13;;;2.53;;
1701;SDS011;848;48.354;10.064;2023-07-13T14:26:09;10.77;;;2.17;;
1701;SDS011;848;48.354;10.064;2023-07-13T14:28:38;9.75;;;2.00;;
1701;SDS011;848;48.354;10.064;2023-07-13T14:31:09;10.13;;;2.23;;
1701;SDS011;848;48.354;10.064;2023-07-13T14:33:36;9.80;;;1.93;;
1701;SDS011;848;48.354;10.064;2023-07-13T14:36:22;10.30;;;2.00;;
1701;SDS011;848;48.354;10.064;2023-07-13T14:38:53;16.67;;;3.90;;
1701;SDS011;848;48.354;10.064;2023-07-13T14:41:20;10.20;;;2.03;;
1701;SDS011;848;48.354;10.064;2023-07-13T14:43:48;12.10;;;2.23;;
1701;SDS011;848;48.354;10.064;2023-07-13T14:46:21;9.87;;;2.87;;
1701;SDS011;848;48.354;10.064;2023-07-13T14:48:55;9.60;;;2.10;;
1701;SDS011;848;48.354;10.064;2023-07-13T14:51:27;13.77;;;2.40;;
1701;SDS011;848;48.354;10.064;2023-07-13T14:53:54;8.03;;;1.67;;
1701;SDS011;848;48.354;10.064;2023-07-13T14:56:21;8.97;;;2.07;;
1701;SDS011;848;48.354;10.064;2023-07-13T14:58:50;8.00;;;2.07;;
1701;SDS011;848;48.354;10.064;2023-07-13T15:01:17;10.27;;;2.70;;
1701;SDS011;848;48.354;10.064;2023-07-13T15:03:45;10.43;;;2.60;;
1701;SDS011;848;48.354;10.064;2023-07-13T15:06:13;10.00;;;2.27;;
1701;SDS011;848;48.354;10.064;2023-07-13T15:08:41;9.50;;;2.27;;
1701;SDS011;848;48.354;10.064;2023-07-13T15:11:08;10.33;;;2.87;;
1701;SDS011;848;48.354;10.064;2023-07-13T15:13:37;15.07;;;2.20;;
1701;SDS011;848;48.354;10.064;2023-07-13T15:16:08;8.43;;;1.97;;
1701;SDS011;848;48.354;10.064;2023-07-13T15:18:40;10.63;;;1.90;;
1701;SDS011;848;48.354;10.064;2023-07-13T15:21:08;8.77;;;1.80;;